sensor_id;sensor_type;location;lat;lon;timestamp;temperature;humidity
23231;DHT22;11784;49.818;8.632;2022-11-12T00:00:38;11.90;91.30
23231;DHT22;11784;49.818;8.632;2022-11-12T00:03:04;11.80;91.30
23231;DHT22;11784;49.818;8.632;2022-11-12T00:05:30;11.80;91.50
23231;DHT22;11784;49.818;8.632;2022-11-12T00:07:56;11.80;91.60
23231;DHT22;11784;49.818;8.632;2022-11-12T00:10:22;11.90;91.60
23231;DHT22;11784;49.818;8.632;2022-11-12T00:12:48;11.90;91.60
23231;DHT22;11784;49.818;8.632;2022-11-12T00:15:14;11.90;91.50
23231;DHT22;11784;49.818;8.632;2022-11-12T00:17:40;11.80;91.50
23231;DHT22;11784;49.818;8.632;2022-11-12T00:20:06;11.90;91.50
23231;DHT22;11784;49.818;8.632;2022-11-12T00:22:32;11.80;91.50
23231;DHT22;11784;49.818;8.632;2022-11-12T00:24:57;11.80;91.50
23231;DHT22;11784;49.818;8.632;2022-11-12T00:27:23;11.80;91.60
23231;DHT22;11784;49.818;8.632;2022-11-12T00:29:49;11.80;91.50
23231;DHT22;11784;49.818;8.632;2022-11-12T00:32:14;11.80;91.40
23231;DHT22;11784;49.818;8.632;2022-11-12T00:34:40;11.80;91.50
23231;DHT22;11784;49.818;8.632;2022-11-12T00:37:05;11.80;91.60
23231;DHT22;11784;49.818;8.632;2022-11-12T00:39:31;11.80;91.50
23231;DHT22;11784;49.818;8.632;2022-11-12T00:41:56;11.80;91.60
23231;DHT22;11784;49.818;8.632;2022-11-12T00:44:22;11.80;91.50
23231;DHT22;11784;49.818;8.632;2022-11-12T00:46:47;11.80;91.50
23231;DHT22;11784;49.818;8.632;2022-11-12T00:49:13;11.70;91.60
23231;DHT22;11784;49.818;8.632;2022-11-12T00:51:39;11.80;91.70
23231;DHT22;11784;49.818;8.632;2022-11-12T00:54:05;11.70;91.50
23231;DHT22;11784;49.818;8.632;2022-11-12T00:56:31;11.70;91.60
23231;DHT22;11784;49.818;8.632;2022-11-12T00:58:57;11.70;91.70
23231;DHT22;11784;49.818;8.632;2022-11-12T01:01:23;11.70;91.60
23231;DHT22;11784;49.818;8.632;2022-11-12T01:03:49;11.70;91.60
23231;DHT22;11784;49.818;8.632;2022-11-12T01:06:17;11.70;91.70
23231;DHT22;11784;49.818;8.632;2022-11-12T01:08:43;11.70;91.60
23231;DHT22;11784;49.818;8.632;2022-11-12T01:11:14;11.70;91.40
23231;DHT22;11784;49.818;8.632;2022-11-12T01:13:42;11.70;91.50
23231;DHT22;11784;49.818;8.632;2022-11-12T01:16:19;11.70;91.50
23231;DHT22;11784;49.818;8.632;2022-11-12T01:18:46;11.70;91.60
23231;DHT22;11784;49.818;8.632;2022-11-12T01:21:12;11.70;91.50
23231;DHT22;11784;49.818;8.632;2022-11-12T01:23:39;11.70;91.40
23231;DHT22;11784;49.818;8.632;2022-11-12T01:26:07;11.70;91.50
23231;DHT22;11784;49.818;8.632;2022-11-12T01:28:33;11.60;91.60
23231;DHT22;11784;49.818;8.632;2022-11-12T01:31:10;11.60;91.70
23231;DHT22;11784;49.818;8.632;2022-11-12T01:33:36;11.60;92.00
23231;DHT22;11784;49.818;8.632;2022-11-12T01:36:01;11.60;91.90
23231;DHT22;11784;49.818;8.632;2022-11-12T01:38:27;11.60;91.80
23231;DHT22;11784;49.818;8.632;2022-11-12T01:40:52;11.70;91.90
23231;DHT22;11784;49.818;8.632;2022-11-12T01:43:18;11.60;91.80
23231;DHT22;11784;49.818;8.632;2022-11-12T01:45:45;11.60;91.90
23231;DHT22;11784;49.818;8.632;2022-11-12T01:48:24;11.60;91.90
23231;DHT22;11784;49.818;8.632;2022-11-12T01:50:51;11.60;91.90
23231;DHT22;11784;49.818;8.632;2022-11-12T01:53:17;11.70;91.80
23231;DHT22;11784;49.818;8.632;2022-11-12T01:55:44;11.70;91.70
23231;DHT22;11784;49.818;8.632;2022-11-12T01:58:12;11.70;91.70
23231;DHT22;11784;49.818;8.632;2022-11-12T02:00:39;11.60;91.80
23231;DHT22;11784;49.818;8.632;2022-11-12T02:03:09;11.70;91.80
23231;DHT22;11784;49.818;8.632;2022-11-12T02:05:37;11.70;91.90
23231;DHT22;11784;49.818;8.632;2022-11-12T02:08:04;11.70;92.00
23231;DHT22;11784;49.818;8.632;2022-11-12T02:10:33;11.70;92.20
23231;DHT22;11784;49.818;8.632;2022-11-12T02:12:59;11.70;91.90
23231;DHT22;11784;49.818;8.632;2022-11-12T02:15:45;11.70;92.00
23231;DHT22;11784;49.818;8.632;2022-11-12T02:18:10;11.70;92.00
23231;DHT22;11784;49.818;8.632;2022-11-12T02:20:37;11.70;92.10
23231;DHT22;11784;49.818;8.632;2022-11-12T02:23:04;11.70;92.30
23231;DHT22;11784;49.818;8.632;2022-11-12T02:25:30;11.70;92.20
23231;DHT22;11784;49.818;8.632;2022-11-12T02:27:57;11.70;92.30
23231;DHT22;11784;49.818;8.632;2022-11-12T02:32:56;11.70;92.10
23231;DHT22;11784;49.818;8.632;2022-11-12T02:35:22;11.70;91.90
23231;DHT22;11784;49.818;8.632;2022-11-12T02:37:47;11.70;91.70
23231;DHT22;11784;49.818;8.632;2022-11-12T02:40:13;11.70;91.50
23231;DHT22;11784;49.818;8.632;2022-11-12T02:42:38;11.70;91.60
23231;DHT22;11784;49.818;8.632;2022-11-12T02:45:05;11.70;91.70
23231;DHT22;11784;49.818;8.632;2022-11-12T02:47:30;11.70;92.10
23231;DHT22;11784;49.818;8.632;2022-11-12T02:49:56;11.70;92.20
23231;DHT22;11784;49.818;8.632;2022-11-12T02:52:21;11.70;91.90
23231;DHT22;11784;49.818;8.632;2022-11-12T02:54:47;11.70;92.10
23231;DHT22;11784;49.818;8.632;2022-11-12T02:57:12;11.70;91.90
23231;DHT22;11784;49.818;8.632;2022-11-12T02:59:38;11.70;91.70
23231;DHT22;11784;49.818;8.632;2022-11-12T03:02:03;11.70;91.90
23231;DHT22;11784;49.818;8.632;2022-11-12T03:04:29;11.70;91.80
23231;DHT22;11784;49.818;8.632;2022-11-12T03:06:54;11.70;91.70
23231;DHT22;11784;49.818;8.632;2022-11-12T03:09:20;11.70;91.70
23231;DHT22;11784;49.818;8.632;2022-11-12T03:11:45;11.70;91.90
23231;DHT22;11784;49.818;8.632;2022-11-12T03:14:11;11.70;91.90
23231;DHT22;11784;49.818;8.632;2022-11-12T03:16:36;11.70;91.70
23231;DHT22;11784;49.818;8.632;2022-11-12T03:19:02;11.70;91.60
23231;DHT22;11784;49.818;8.632;2022-11-12T03:21:27;11.70;91.70
23231;DHT22;11784;49.818;8.632;2022-11-12T03:23:53;11.70;91.80
23231;DHT22;11784;49.818;8.632;2022-11-12T03:26:18;11.70;91.80
23231;DHT22;11784;49.818;8.632;2022-11-12T03:28:44;11.70;92.00
23231;DHT22;11784;49.818;8.632;2022-11-12T03:31:09;11.70;91.90
23231;DHT22;11784;49.818;8.632;2022-11-12T03:33:36;11.70;91.70
23231;DHT22;11784;49.818;8.632;2022-11-12T03:36:03;11.70;91.90
23231;DHT22;11784;49.818;8.632;2022-11-12T03:38:28;11.70;92.00
23231;DHT22;11784;49.818;8.632;2022-11-12T03:40:54;11.70;91.80
23231;DHT22;11784;49.818;8.632;2022-11-12T03:43:19;11.70;91.50
23231;DHT22;11784;49.818;8.632;2022-11-12T03:45:45;11.70;91.70
23231;DHT22;11784;49.818;8.632;2022-11-12T03:48:10;11.70;91.90
23231;DHT22;11784;49.818;8.632;2022-11-12T03:50:36;11.70;91.70
23231;DHT22;11784;49.818;8.632;2022-11-12T03:53:02;11.70;92.00
23231;DHT22;11784;49.818;8.632;2022-11-12T03:55:28;11.70;92.10
23231;DHT22;11784;49.818;8.632;2022-11-12T03:57:55;11.70;91.90
23231;DHT22;11784;49.818;8.632;2022-11-12T04:00:23;11.70;92.00
23231;DHT22;11784;49.818;8.632;2022-11-12T04:02:49;11.70;91.90
23231;DHT22;11784;49.818;8.632;2022-11-12T04:05:15;11.70;91.90
23231;DHT22;11784;49.818;8.632;2022-11-12T04:08:05;11.70;92.00
23231;DHT22;11784;49.818;8.632;2022-11-12T04:10:49;11.70;92.00
23231;DHT22;11784;49.818;8.632;2022-11-12T04:13:15;11.70;91.60
23231;DHT22;11784;49.818;8.632;2022-11-12T04:15:58;11.70;91.70
23231;DHT22;11784;49.818;8.632;2022-11-12T04:18:44;11.70;91.60
23231;DHT22;11784;49.818;8.632;2022-11-12T04:21:31;11.70;91.50
23231;DHT22;11784;49.818;8.632;2022-11-12T04:24:23;11.70;91.60
23231;DHT22;11784;49.818;8.632;2022-11-12T04:27:11;11.70;91.50
23231;DHT22;11784;49.818;8.632;2022-11-12T04:29:37;11.70;91.40
23231;DHT22;11784;49.818;8.632;2022-11-12T04:32:22;11.70;91.20
23231;DHT22;11784;49.818;8.632;2022-11-12T04:34:48;11.70;91.00
23231;DHT22;11784;49.818;8.632;2022-11-12T04:37:13;11.60;91.20
23231;DHT22;11784;49.818;8.632;2022-11-12T04:39:39;11.60;91.30
23231;DHT22;11784;49.818;8.632;2022-11-12T04:42:04;11.60;91.00
23231;DHT22;11784;49.818;8.632;2022-11-12T04:44:49;11.60;91.20
23231;DHT22;11784;49.818;8.632;2022-11-12T04:47:41;11.60;91.10
23231;DHT22;11784;49.818;8.632;2022-11-12T04:50:16;11.60;91.00
23231;DHT22;11784;49.818;8.632;2022-11-12T04:52:42;11.60;91.00
23231;DHT22;11784;49.818;8.632;2022-11-12T04:55:08;11.60;90.90
23231;DHT22;11784;49.818;8.632;2022-11-12T04:57:35;11.60;90.70
23231;DHT22;11784;49.818;8.632;2022-11-12T05:00:01;11.60;90.60
23231;DHT22;11784;49.818;8.632;2022-11-12T05:02:27;11.60;90.60
23231;DHT22;11784;49.818;8.632;2022-11-12T05:04:53;11.50;90.60
23231;DHT22;11784;49.818;8.632;2022-11-12T05:07:18;11.50;90.40
23231;DHT22;11784;49.818;8.632;2022-11-12T05:09:44;11.50;90.50
23231;DHT22;11784;49.818;8.632;2022-11-12T05:12:10;11.50;90.10
23231;DHT22;11784;49.818;8.632;2022-11-12T05:14:35;11.60;90.10
23231;DHT22;11784;49.818;8.632;2022-11-12T05:17:01;11.50;89.80
23231;DHT22;11784;49.818;8.632;2022-11-12T05:19:26;11.50;89.70
23231;DHT22;11784;49.818;8.632;2022-11-12T05:21:52;11.50;89.50
23231;DHT22;11784;49.818;8.632;2022-11-12T05:24:37;11.40;89.40
23231;DHT22;11784;49.818;8.632;2022-11-12T05:27:06;11.40;89.30
23231;DHT22;11784;49.818;8.632;2022-11-12T05:29:32;11.40;89.70
23231;DHT22;11784;49.818;8.632;2022-11-12T05:31:57;11.40;89.90
23231;DHT22;11784;49.818;8.632;2022-11-12T05:34:23;11.30;89.80
23231;DHT22;11784;49.818;8.632;2022-11-12T05:36:48;11.30;89.70
23231;DHT22;11784;49.818;8.632;2022-11-12T05:39:14;11.30;89.50
23231;DHT22;11784;49.818;8.632;2022-11-12T05:41:39;11.30;89.30
23231;DHT22;11784;49.818;8.632;2022-11-12T05:44:05;11.30;89.20
23231;DHT22;11784;49.818;8.632;2022-11-12T05:46:30;11.30;89.20
23231;DHT22;11784;49.818;8.632;2022-11-12T05:48:56;11.20;89.50
23231;DHT22;11784;49.818;8.632;2022-11-12T05:51:22;11.20;89.30
23231;DHT22;11784;49.818;8.632;2022-11-12T05:53:48;11.20;89.30
23231;DHT22;11784;49.818;8.632;2022-11-12T05:56:14;11.20;89.60
23231;DHT22;11784;49.818;8.632;2022-11-12T05:58:39;11.20;89.70
23231;DHT22;11784;49.818;8.632;2022-11-12T06:01:05;11.20;89.50
23231;DHT22;11784;49.818;8.632;2022-11-12T06:03:30;11.10;89.50
23231;DHT22;11784;49.818;8.632;2022-11-12T06:05:56;11.10;89.70
23231;DHT22;11784;49.818;8.632;2022-11-12T06:08:22;11.10;89.90
23231;DHT22;11784;49.818;8.632;2022-11-12T06:10:52;11.10;89.60
23231;DHT22;11784;49.818;8.632;2022-11-12T06:13:18;11.10;89.60
23231;DHT22;11784;49.818;8.632;2022-11-12T06:15:44;11.10;89.90
23231;DHT22;11784;49.818;8.632;2022-11-12T06:18:10;11.10;89.40
23231;DHT22;11784;49.818;8.632;2022-11-12T06:20:35;11.10;89.70
23231;DHT22;11784;49.818;8.632;2022-11-12T06:23:01;11.10;89.40
23231;DHT22;11784;49.818;8.632;2022-11-12T06:25:27;11.10;90.00
23231;DHT22;11784;49.818;8.632;2022-11-12T06:27:52;11.10;89.60
23231;DHT22;11784;49.818;8.632;2022-11-12T06:30:19;11.10;89.60
23231;DHT22;11784;49.818;8.632;2022-11-12T06:32:48;11.10;89.00
23231;DHT22;11784;49.818;8.632;2022-11-12T06:35:15;11.10;89.20
23231;DHT22;11784;49.818;8.632;2022-11-12T06:37:40;11.10;89.60
23231;DHT22;11784;49.818;8.632;2022-11-12T06:40:07;11.10;89.30
23231;DHT22;11784;49.818;8.632;2022-11-12T06:42:33;11.10;89.60
23231;DHT22;11784;49.818;8.632;2022-11-12T06:44:58;11.10;89.20
23231;DHT22;11784;49.818;8.632;2022-11-12T06:47:24;11.10;89.40
23231;DHT22;11784;49.818;8.632;2022-11-12T06:49:49;11.10;89.70
23231;DHT22;11784;49.818;8.632;2022-11-12T06:52:15;11.10;89.50
23231;DHT22;11784;49.818;8.632;2022-11-12T06:54:41;11.10;90.00
23231;DHT22;11784;49.818;8.632;2022-11-12T06:57:06;11.10;89.90
23231;DHT22;11784;49.818;8.632;2022-11-12T06:59:32;11.10;90.00
23231;DHT22;11784;49.818;8.632;2022-11-12T07:01:57;11.10;89.60
23231;DHT22;11784;49.818;8.632;2022-11-12T07:04:23;11.10;89.50
23231;DHT22;11784;49.818;8.632;2022-11-12T07:06:49;11.10;89.40
23231;DHT22;11784;49.818;8.632;2022-11-12T07:09:15;11.10;89.40
23231;DHT22;11784;49.818;8.632;2022-11-12T07:11:40;11.10;89.20
23231;DHT22;11784;49.818;8.632;2022-11-12T07:14:06;11.10;89.20
23231;DHT22;11784;49.818;8.632;2022-11-12T07:16:32;11.10;89.00
23231;DHT22;11784;49.818;8.632;2022-11-12T07:18:58;11.10;88.80
23231;DHT22;11784;49.818;8.632;2022-11-12T07:21:23;11.10;89.10
23231;DHT22;11784;49.818;8.632;2022-11-12T07:23:49;11.20;88.90
23231;DHT22;11784;49.818;8.632;2022-11-12T07:28:41;11.10;88.60
23231;DHT22;11784;49.818;8.632;2022-11-12T07:31:09;11.20;89.10
23231;DHT22;11784;49.818;8.632;2022-11-12T07:33:35;11.20;89.30
23231;DHT22;11784;49.818;8.632;2022-11-12T07:36:06;11.20;89.10
23231;DHT22;11784;49.818;8.632;2022-11-12T07:38:33;11.20;89.20
23231;DHT22;11784;49.818;8.632;2022-11-12T07:41:09;11.30;88.80
23231;DHT22;11784;49.818;8.632;2022-11-12T07:43:37;11.30;89.00
23231;DHT22;11784;49.818;8.632;2022-11-12T07:46:06;11.30;89.00
23231;DHT22;11784;49.818;8.632;2022-11-12T07:48:32;11.30;88.50
23231;DHT22;11784;49.818;8.632;2022-11-12T07:50:59;11.30;88.70
23231;DHT22;11784;49.818;8.632;2022-11-12T07:53:25;11.30;88.60
23231;DHT22;11784;49.818;8.632;2022-11-12T07:55:54;11.40;88.30
23231;DHT22;11784;49.818;8.632;2022-11-12T07:58:21;11.40;88.20
23231;DHT22;11784;49.818;8.632;2022-11-12T08:00:47;11.40;87.70
23231;DHT22;11784;49.818;8.632;2022-11-12T08:03:12;11.40;88.20
23231;DHT22;11784;49.818;8.632;2022-11-12T08:05:38;11.40;88.30
23231;DHT22;11784;49.818;8.632;2022-11-12T08:08:03;11.50;88.10
23231;DHT22;11784;49.818;8.632;2022-11-12T08:10:29;11.50;86.30
23231;DHT22;11784;49.818;8.632;2022-11-12T08:12:55;11.50;85.90
23231;DHT22;11784;49.818;8.632;2022-11-12T08:15:20;11.50;86.20
23231;DHT22;11784;49.818;8.632;2022-11-12T08:17:46;11.50;86.60
23231;DHT22;11784;49.818;8.632;2022-11-12T08:20:11;11.50;86.70
23231;DHT22;11784;49.818;8.632;2022-11-12T08:22:37;11.60;87.20
23231;DHT22;11784;49.818;8.632;2022-11-12T08:25:03;11.60;87.50
23231;DHT22;11784;49.818;8.632;2022-11-12T08:27:29;11.60;87.50
23231;DHT22;11784;49.818;8.632;2022-11-12T08:29:54;11.60;87.30
23231;DHT22;11784;49.818;8.632;2022-11-12T08:32:20;11.70;87.40
23231;DHT22;11784;49.818;8.632;2022-11-12T08:34:45;11.70;87.50
23231;DHT22;11784;49.818;8.632;2022-11-12T08:37:11;11.70;87.40
23231;DHT22;11784;49.818;8.632;2022-11-12T08:39:37;11.70;87.30
23231;DHT22;11784;49.818;8.632;2022-11-12T08:42:03;11.70;87.00
23231;DHT22;11784;49.818;8.632;2022-11-12T08:44:29;11.80;86.80
23231;DHT22;11784;49.818;8.632;2022-11-12T08:46:54;11.80;87.60
23231;DHT22;11784;49.818;8.632;2022-11-12T08:49:20;11.80;86.80
23231;DHT22;11784;49.818;8.632;2022-11-12T08:51:45;11.80;86.80
23231;DHT22;11784;49.818;8.632;2022-11-12T08:54:11;11.80;87.00
23231;DHT22;11784;49.818;8.632;2022-11-12T08:56:37;11.80;86.40
23231;DHT22;11784;49.818;8.632;2022-11-12T08:59:04;11.80;86.10
23231;DHT22;11784;49.818;8.632;2022-11-12T09:01:29;11.80;86.70
23231;DHT22;11784;49.818;8.632;2022-11-12T09:03:55;11.80;86.80
23231;DHT22;11784;49.818;8.632;2022-11-12T09:06:20;11.80;87.00
23231;DHT22;11784;49.818;8.632;2022-11-12T09:08:46;11.80;86.60
23231;DHT22;11784;49.818;8.632;2022-11-12T09:11:11;11.80;86.70
23231;DHT22;11784;49.818;8.632;2022-11-12T09:13:37;11.90;86.30
23231;DHT22;11784;49.818;8.632;2022-11-12T09:16:04;11.90;86.10
23231;DHT22;11784;49.818;8.632;2022-11-12T09:18:31;11.90;86.20
23231;DHT22;11784;49.818;8.632;2022-11-12T09:21:05;11.90;86.20
23231;DHT22;11784;49.818;8.632;2022-11-12T09:23:33;11.90;86.10
23231;DHT22;11784;49.818;8.632;2022-11-12T09:25:58;11.90;86.30
23231;DHT22;11784;49.818;8.632;2022-11-12T09:28:24;12.00;86.50
23231;DHT22;11784;49.818;8.632;2022-11-12T09:30:50;12.00;87.00
23231;DHT22;11784;49.818;8.632;2022-11-12T09:33:19;12.10;86.10
23231;DHT22;11784;49.818;8.632;2022-11-12T09:35:45;12.10;86.30
23231;DHT22;11784;49.818;8.632;2022-11-12T09:38:18;12.20;86.20
23231;DHT22;11784;49.818;8.632;2022-11-12T09:43:26;12.20;86.60
23231;DHT22;11784;49.818;8.632;2022-11-12T09:45:56;12.30;85.80
23231;DHT22;11784;49.818;8.632;2022-11-12T09:48:33;12.30;85.40
23231;DHT22;11784;49.818;8.632;2022-11-12T09:51:05;12.40;84.80
23231;DHT22;11784;49.818;8.632;2022-11-12T09:54:10;12.40;84.80
23231;DHT22;11784;49.818;8.632;2022-11-12T09:56:38;12.40;84.40
23231;DHT22;11784;49.818;8.632;2022-11-12T09:59:10;12.40;85.10
23231;DHT22;11784;49.818;8.632;2022-11-12T10:01:37;12.50;84.70
23231;DHT22;11784;49.818;8.632;2022-11-12T10:07:11;12.50;83.80
23231;DHT22;11784;49.818;8.632;2022-11-12T10:09:57;12.50;84.10
23231;DHT22;11784;49.818;8.632;2022-11-12T10:15:57;12.60;85.00
23231;DHT22;11784;49.818;8.632;2022-11-12T10:23:49;12.70;83.90
23231;DHT22;11784;49.818;8.632;2022-11-12T10:26:18;12.70;84.70
23231;DHT22;11784;49.818;8.632;2022-11-12T10:29:12;12.70;85.40
23231;DHT22;11784;49.818;8.632;2022-11-12T10:31:32;12.80;85.20
23231;DHT22;11784;49.818;8.632;2022-11-12T10:34:12;12.90;85.40
23231;DHT22;11784;49.818;8.632;2022-11-12T10:36:51;12.90;85.20
23231;DHT22;11784;49.818;8.632;2022-11-12T10:39:39;13.00;84.70
23231;DHT22;11784;49.818;8.632;2022-11-12T10:42:08;13.00;84.70
23231;DHT22;11784;49.818;8.632;2022-11-12T10:44:35;13.10;84.60
23231;DHT22;11784;49.818;8.632;2022-11-12T10:47:31;13.10;84.90
23231;DHT22;11784;49.818;8.632;2022-11-12T10:50:15;13.20;84.10
23231;DHT22;11784;49.818;8.632;2022-11-12T10:53:00;13.20;83.50
23231;DHT22;11784;49.818;8.632;2022-11-12T10:55:30;13.30;84.10
23231;DHT22;11784;49.818;8.632;2022-11-12T10:58:03;13.30;83.50
23231;DHT22;11784;49.818;8.632;2022-11-12T11:00:28;13.30;84.10
23231;DHT22;11784;49.818;8.632;2022-11-12T11:02:54;13.40;84.20
23231;DHT22;11784;49.818;8.632;2022-11-12T11:05:35;13.40;83.10
23231;DHT22;11784;49.818;8.632;2022-11-12T11:08:02;13.40;82.80
23231;DHT22;11784;49.818;8.632;2022-11-12T11:10:31;13.50;82.50
23231;DHT22;11784;49.818;8.632;2022-11-12T11:13:17;13.40;82.60
23231;DHT22;11784;49.818;8.632;2022-11-12T11:15:59;13.50;82.80
23231;DHT22;11784;49.818;8.632;2022-11-12T11:18:26;13.50;83.70
23231;DHT22;11784;49.818;8.632;2022-11-12T11:23:47;13.60;84.50
23231;DHT22;11784;49.818;8.632;2022-11-12T11:26:33;13.60;83.50
23231;DHT22;11784;49.818;8.632;2022-11-12T11:29:29;13.70;83.40
23231;DHT22;11784;49.818;8.632;2022-11-12T11:32:28;13.70;83.80
23231;DHT22;11784;49.818;8.632;2022-11-12T11:38:05;13.80;84.30
23231;DHT22;11784;49.818;8.632;2022-11-12T11:41:22;13.80;83.60
23231;DHT22;11784;49.818;8.632;2022-11-12T11:46:44;13.90;84.20
23231;DHT22;11784;49.818;8.632;2022-11-12T11:49:41;14.00;82.60
23231;DHT22;11784;49.818;8.632;2022-11-12T11:58:33;14.10;84.10
23231;DHT22;11784;49.818;8.632;2022-11-12T12:06:26;14.20;83.70
23231;DHT22;11784;49.818;8.632;2022-11-12T12:11:46;14.40;83.80
23231;DHT22;11784;49.818;8.632;2022-11-12T12:14:48;14.50;83.60
23231;DHT22;11784;49.818;8.632;2022-11-12T12:20:10;14.60;82.60
23231;DHT22;11784;49.818;8.632;2022-11-12T12:22:49;14.70;81.70
23231;DHT22;11784;49.818;8.632;2022-11-12T12:25:25;14.70;81.30
23231;DHT22;11784;49.818;8.632;2022-11-12T12:28:07;14.80;81.40
23231;DHT22;11784;49.818;8.632;2022-11-12T12:30:41;14.80;81.60
23231;DHT22;11784;49.818;8.632;2022-11-12T12:36:02;14.90;81.70
23231;DHT22;11784;49.818;8.632;2022-11-12T12:41:28;14.90;80.70
23231;DHT22;11784;49.818;8.632;2022-11-12T12:44:01;15.00;80.70
23231;DHT22;11784;49.818;8.632;2022-11-12T12:46:29;15.00;80.40
23231;DHT22;11784;49.818;8.632;2022-11-12T12:48:57;14.90;80.40
23231;DHT22;11784;49.818;8.632;2022-11-12T12:51:27;14.90;80.50
23231;DHT22;11784;49.818;8.632;2022-11-12T12:53:54;14.90;80.30
23231;DHT22;11784;49.818;8.632;2022-11-12T12:58:49;14.90;80.50
23231;DHT22;11784;49.818;8.632;2022-11-12T13:08:52;14.70;80.80
23231;DHT22;11784;49.818;8.632;2022-11-12T13:17:01;14.60;81.40
23231;DHT22;11784;49.818;8.632;2022-11-12T13:19:29;14.60;81.60
23231;DHT22;11784;49.818;8.632;2022-11-12T13:37:52;14.40;82.40
23231;DHT22;11784;49.818;8.632;2022-11-12T13:40:45;14.30;82.70
23231;DHT22;11784;49.818;8.632;2022-11-12T13:45:51;14.20;82.90
23231;DHT22;11784;49.818;8.632;2022-11-12T13:48:31;14.20;83.20
23231;DHT22;11784;49.818;8.632;2022-11-12T13:51:02;14.20;82.80
23231;DHT22;11784;49.818;8.632;2022-11-12T13:53:32;14.10;83.30
23231;DHT22;11784;49.818;8.632;2022-11-12T13:55:58;14.10;83.20
23231;DHT22;11784;49.818;8.632;2022-11-12T13:58:36;14.10;83.80
23231;DHT22;11784;49.818;8.632;2022-11-12T14:01:05;14.00;83.60
23231;DHT22;11784;49.818;8.632;2022-11-12T14:03:51;14.00;83.70
23231;DHT22;11784;49.818;8.632;2022-11-12T14:06:47;14.00;83.80
23231;DHT22;11784;49.818;8.632;2022-11-12T14:20:40;13.80;84.90
23231;DHT22;11784;49.818;8.632;2022-11-12T14:23:17;13.80;84.90
23231;DHT22;11784;49.818;8.632;2022-11-12T14:25:48;13.80;84.40
23231;DHT22;11784;49.818;8.632;2022-11-12T14:28:27;13.70;84.60
23231;DHT22;11784;49.818;8.632;2022-11-12T14:30:54;13.70;85.20
23231;DHT22;11784;49.818;8.632;2022-11-12T14:33:21;13.70;85.20
23231;DHT22;11784;49.818;8.632;2022-11-12T14:35:49;13.70;85.50
23231;DHT22;11784;49.818;8.632;2022-11-12T14:38:51;13.60;86.30
23231;DHT22;11784;49.818;8.632;2022-11-12T14:43:51;13.50;86.30
23231;DHT22;11784;49.818;8.632;2022-11-12T14:46:26;13.50;86.40
23231;DHT22;11784;49.818;8.632;2022-11-12T14:49:03;13.50;86.40
23231;DHT22;11784;49.818;8.632;2022-11-12T14:51:34;13.40;86.70
23231;DHT22;11784;49.818;8.632;2022-11-12T14:54:03;13.40;86.80
23231;DHT22;11784;49.818;8.632;2022-11-12T14:56:36;13.40;86.80
23231;DHT22;11784;49.818;8.632;2022-11-12T14:59:04;13.40;87.10
23231;DHT22;11784;49.818;8.632;2022-11-12T15:01:32;13.30;87.50
23231;DHT22;11784;49.818;8.632;2022-11-12T15:06:37;13.30;87.80
23231;DHT22;11784;49.818;8.632;2022-11-12T15:09:04;13.30;87.90
23231;DHT22;11784;49.818;8.632;2022-11-12T15:11:43;13.20;88.20
23231;DHT22;11784;49.818;8.632;2022-11-12T15:14:19;13.20;88.30
23231;DHT22;11784;49.818;8.632;2022-11-12T15:16:46;13.10;88.70
23231;DHT22;11784;49.818;8.632;2022-11-12T15:19:24;13.10;88.30
23231;DHT22;11784;49.818;8.632;2022-11-12T15:21:56;13.10;88.90
23231;DHT22;11784;49.818;8.632;2022-11-12T15:24:35;13.10;89.20
23231;DHT22;11784;49.818;8.632;2022-11-12T15:27:33;13.10;89.50
23231;DHT22;11784;49.818;8.632;2022-11-12T15:32:41;13.10;89.50
23231;DHT22;11784;49.818;8.632;2022-11-12T15:37:48;13.10;89.60
23231;DHT22;11784;49.818;8.632;2022-11-12T15:40:16;13.10;89.50
23231;DHT22;11784;49.818;8.632;2022-11-12T15:42:43;13.00;89.90
23231;DHT22;11784;49.818;8.632;2022-11-12T15:45:14;13.00;90.10
23231;DHT22;11784;49.818;8.632;2022-11-12T15:47:40;13.00;90.10
23231;DHT22;11784;49.818;8.632;2022-11-12T15:50:22;12.90;89.90
23231;DHT22;11784;49.818;8.632;2022-11-12T15:52:49;13.00;90.00
23231;DHT22;11784;49.818;8.632;2022-11-12T15:55:18;12.90;90.10
23231;DHT22;11784;49.818;8.632;2022-11-12T15:57:49;12.90;90.10
23231;DHT22;11784;49.818;8.632;2022-11-12T16:00:20;13.00;90.20
23231;DHT22;11784;49.818;8.632;2022-11-12T16:02:48;13.00;90.30
23231;DHT22;11784;49.818;8.632;2022-11-12T16:05:17;12.90;90.40
23231;DHT22;11784;49.818;8.632;2022-11-12T16:07:43;12.90;90.40
23231;DHT22;11784;49.818;8.632;2022-11-12T16:10:13;12.90;90.60
23231;DHT22;11784;49.818;8.632;2022-11-12T16:12:40;12.90;90.50
23231;DHT22;11784;49.818;8.632;2022-11-12T16:15:19;12.90;90.40
23231;DHT22;11784;49.818;8.632;2022-11-12T16:17:47;13.00;90.70
23231;DHT22;11784;49.818;8.632;2022-11-12T16:20:16;12.90;90.50
23231;DHT22;11784;49.818;8.632;2022-11-12T16:22:41;12.90;90.50
23231;DHT22;11784;49.818;8.632;2022-11-12T16:25:07;12.90;90.40
23231;DHT22;11784;49.818;8.632;2022-11-12T16:27:33;13.00;90.50
23231;DHT22;11784;49.818;8.632;2022-11-12T16:29:59;13.00;90.70
23231;DHT22;11784;49.818;8.632;2022-11-12T16:32:25;13.00;90.80
23231;DHT22;11784;49.818;8.632;2022-11-12T16:34:50;13.00;90.80
23231;DHT22;11784;49.818;8.632;2022-11-12T16:37:16;13.00;90.90
23231;DHT22;11784;49.818;8.632;2022-11-12T16:39:41;13.00;90.80
23231;DHT22;11784;49.818;8.632;2022-11-12T16:42:10;13.00;90.60
23231;DHT22;11784;49.818;8.632;2022-11-12T16:44:36;13.00;90.70
23231;DHT22;11784;49.818;8.632;2022-11-12T16:47:02;13.00;90.60
23231;DHT22;11784;49.818;8.632;2022-11-12T16:49:28;13.00;90.40
23231;DHT22;11784;49.818;8.632;2022-11-12T16:51:54;13.00;90.60
23231;DHT22;11784;49.818;8.632;2022-11-12T16:54:19;13.00;90.60
23231;DHT22;11784;49.818;8.632;2022-11-12T16:56:45;13.00;90.50
23231;DHT22;11784;49.818;8.632;2022-11-12T16:59:11;13.00;90.60
23231;DHT22;11784;49.818;8.632;2022-11-12T17:01:39;12.90;90.80
23231;DHT22;11784;49.818;8.632;2022-11-12T17:04:05;12.90;91.00
23231;DHT22;11784;49.818;8.632;2022-11-12T17:06:33;12.90;91.10
23231;DHT22;11784;49.818;8.632;2022-11-12T17:08:59;12.90;91.20
23231;DHT22;11784;49.818;8.632;2022-11-12T17:11:24;12.90;91.20
23231;DHT22;11784;49.818;8.632;2022-11-12T17:13:49;13.00;91.20
23231;DHT22;11784;49.818;8.632;2022-11-12T17:16:15;13.00;91.10
23231;DHT22;11784;49.818;8.632;2022-11-12T17:18:41;13.00;91.60
23231;DHT22;11784;49.818;8.632;2022-11-12T17:21:12;13.00;91.20
23231;DHT22;11784;49.818;8.632;2022-11-12T17:23:38;13.00;91.10
23231;DHT22;11784;49.818;8.632;2022-11-12T17:26:07;13.00;90.90
23231;DHT22;11784;49.818;8.632;2022-11-12T17:28:33;13.00;91.10
23231;DHT22;11784;49.818;8.632;2022-11-12T17:33:41;13.00;91.10